首页
METAR-TAF:

METAR-TAF

机场 :

伊爾庫茨克國際機場

伊爾庫茨克, 俄罗斯

纬度: 52-16N, 经度: 104-19E, 海拔: 513米

当前天气观测

该预报发布于29分钟前的02:00 UTC
风速12节,风向西转西北
温度 18°C
湿度 77%
气压 1013 hPa
能见度10公里或以上
少量云层高于1900英尺, 积雨云.

METAR: UIII 190200Z 30006MPS 9999 FEW019CB 18/14 Q1013 R30/60D NOSIG RMK QFE715/0953

时间: 10:29 (02:29 UTC)

预报

该预报发布于3小时和29分钟前的23:00 UTC
预报有效从19日的 00点(UTC)到 19日的 24点(UTC)
风速10节,风向西转西北
能见度10公里或以上
多云层高于1200英尺, 积雨云.
短暂存在
从 19日的 00点(UTC)到 19日的 12点(UTC)
风速19节,风向多变
雷暴, 小雨

TAF: UIII 182300Z 1900/1924 30005MPS 9999 BKN012CB TEMPO 1900/1912 VRB10MPS -TSRA

超过4000个机场的气象观测和天气预报(METAR&TAF报告)。

可查询的气象台以黄色和红色小点在地图上表示。

将鼠标移到小点上方,可查看气象台名称。

然后点击查看天气观测和预报。

如需切换地图:点击带黑十字的绿色按钮放大地图;点击带横线的绿色按钮缩小地图;或者点击绿色箭头查看邻近地区的地图。


METAR-TAF: